createdAt,value
2018-12-22T00:00:02.445Z,9.40
2018-12-22T00:02:30.612Z,9.40
2018-12-22T00:04:58.781Z,9.30
2018-12-22T00:07:26.945Z,9.30
2018-12-22T00:09:55.116Z,9.40
2018-12-22T00:12:23.260Z,9.40
2018-12-22T00:14:51.871Z,9.40
2018-12-22T00:17:20.059Z,9.50
2018-12-22T00:19:48.248Z,9.60
2018-12-22T00:22:16.407Z,9.70
2018-12-22T00:24:44.670Z,9.80
2018-12-22T00:27:12.800Z,9.90
2018-12-22T00:29:41.102Z,9.90
2018-12-22T00:32:09.245Z,9.90
2018-12-22T00:34:37.425Z,10.00
2018-12-22T00:37:05.643Z,9.90
2018-12-22T00:39:33.772Z,9.90
2018-12-22T00:42:01.921Z,9.90
2018-12-22T00:44:30.072Z,9.90
2018-12-22T00:46:58.277Z,9.80
2018-12-22T00:49:26.505Z,9.90
2018-12-22T00:51:54.636Z,9.90
2018-12-22T00:54:22.860Z,9.90
2018-12-22T00:56:51.016Z,9.90
2018-12-22T00:59:19.189Z,9.80
2018-12-22T01:01:47.432Z,9.80
2018-12-22T01:04:15.601Z,9.80
2018-12-22T01:06:43.782Z,9.80
2018-12-22T01:09:11.907Z,9.70
2018-12-22T01:11:40.259Z,9.80
2018-12-22T01:14:08.413Z,9.80
2018-12-22T01:16:36.565Z,9.80
2018-12-22T01:19:04.868Z,9.80
2018-12-22T01:21:32.994Z,9.70
2018-12-22T01:24:01.252Z,9.70
2018-12-22T01:26:29.396Z,9.80
2018-12-22T01:28:57.528Z,9.80
2018-12-22T01:31:25.771Z,9.80
2018-12-22T01:33:53.979Z,9.70
2018-12-22T01:36:36.332Z,9.70
2018-12-22T01:39:06.535Z,9.70
2018-12-22T01:41:34.784Z,9.70
2018-12-22T01:44:02.953Z,9.80
2018-12-22T01:46:31.195Z,9.80
2018-12-22T01:48:59.435Z,9.80
2018-12-22T01:51:27.755Z,9.80
2018-12-22T01:53:55.929Z,9.80
2018-12-22T01:56:24.162Z,9.80
2018-12-22T02:01:50.504Z,9.80
2018-12-22T02:04:18.643Z,9.80
2018-12-22T02:06:47.206Z,9.80
2018-12-22T02:09:31.455Z,9.80
2018-12-22T02:11:59.661Z,9.80
2018-12-22T02:14:27.792Z,9.80
2018-12-22T02:22:46.408Z,9.70
2018-12-22T02:25:20.365Z,9.80
2018-12-22T02:27:51.660Z,9.80
2018-12-22T02:33:21.516Z,9.80
2018-12-22T02:35:52.913Z,9.80
2018-12-22T02:38:22.693Z,9.80
2018-12-22T02:40:54.799Z,9.70
2018-12-22T02:43:29.152Z,9.70
2018-12-22T02:46:02.909Z,9.70
2018-12-22T02:48:34.524Z,9.80
2018-12-22T02:51:05.741Z,9.70
2018-12-22T02:53:36.946Z,9.70
2018-12-22T02:56:10.822Z,9.70
2018-12-22T02:58:42.128Z,9.80
2018-12-22T03:01:16.661Z,9.90
2018-12-22T03:03:48.056Z,9.90
2018-12-22T03:06:22.392Z,9.90
2018-12-22T03:08:54.015Z,9.80
2018-12-22T03:11:25.613Z,9.80
2018-12-22T03:13:55.610Z,9.80
2018-12-22T03:16:25.516Z,9.80
2018-12-22T03:18:55.524Z,9.80
2018-12-22T03:21:27.548Z,9.80
2018-12-22T03:23:59.680Z,9.80
2018-12-22T03:26:31.664Z,9.80
2018-12-22T03:29:03.925Z,9.80
2018-12-22T03:31:36.022Z,9.90
2018-12-22T03:34:10.342Z,9.80
2018-12-22T03:36:41.755Z,9.90
2018-12-22T03:39:13.603Z,9.90
2018-12-22T03:41:48.322Z,10.00
2018-12-22T03:44:22.032Z,10.00
2018-12-22T03:46:53.416Z,10.00
2018-12-22T03:49:27.169Z,10.00
2018-12-22T03:52:01.255Z,10.10
2018-12-22T03:54:35.080Z,10.10
2018-12-22T03:57:09.145Z,10.10
2018-12-22T03:59:43.019Z,10.10
2018-12-22T04:02:17.064Z,10.10
2018-12-22T04:04:48.534Z,10.00
2018-12-22T04:07:20.644Z,9.90
2018-12-22T04:09:52.090Z,9.70
2018-12-22T04:12:23.660Z,9.70
2018-12-22T04:14:55.633Z,9.80
2018-12-22T04:17:27.634Z,9.70
2018-12-22T04:20:06.092Z,9.80
2018-12-22T04:22:37.641Z,9.80
2018-12-22T04:25:09.752Z,9.80
2018-12-22T04:27:41.816Z,9.90
2018-12-22T04:30:13.804Z,9.90
2018-12-22T04:32:45.729Z,9.90
2018-12-22T04:35:17.724Z,9.90
2018-12-22T04:37:52.098Z,9.90
2018-12-22T04:40:23.826Z,9.90
2018-12-22T04:42:55.711Z,9.90
2018-12-22T04:45:25.707Z,9.90
2018-12-22T04:48:07.688Z,9.90
2018-12-22T04:50:39.700Z,9.80
2018-12-22T04:53:09.599Z,9.90
2018-12-22T04:55:43.936Z,9.90
2018-12-22T04:58:17.802Z,10.00
2018-12-22T05:00:47.384Z,10.00
2018-12-22T05:03:21.724Z,10.00
2018-12-22T05:05:55.653Z,10.00
2018-12-22T05:08:27.059Z,10.00
2018-12-22T05:10:57.535Z,10.00
2018-12-22T05:13:31.918Z,10.00
2018-12-22T05:16:10.551Z,10.00
2018-12-22T05:18:42.739Z,10.00
2018-12-22T05:21:10.918Z,10.10
2018-12-22T05:23:42.419Z,10.10
2018-12-22T05:26:17.873Z,10.00
2018-12-22T05:29:04.980Z,10.00
2018-12-22T05:31:34.510Z,10.00
2018-12-22T05:34:02.651Z,10.00
2018-12-22T05:36:34.448Z,10.00
2018-12-22T05:39:07.324Z,10.10
2018-12-22T05:41:54.152Z,10.20
2018-12-22T05:44:35.705Z,10.10
2018-12-22T05:47:08.023Z,10.10
2018-12-22T05:52:45.117Z,10.10
2018-12-22T05:55:16.444Z,10.20
2018-12-22T05:57:54.681Z,10.20
2018-12-22T06:03:18.593Z,10.30
2018-12-22T06:05:46.895Z,10.30
2018-12-22T06:08:27.834Z,10.30
2018-12-22T06:11:02.594Z,10.20
2018-12-22T06:16:31.953Z,10.20
2018-12-22T06:19:03.452Z,10.20
2018-12-22T06:21:38.311Z,10.00
2018-12-22T06:24:06.601Z,10.10
2018-12-22T06:26:41.021Z,10.10
2018-12-22T06:29:13.257Z,10.00
2018-12-22T06:31:44.556Z,10.00
2018-12-22T06:34:16.440Z,10.00
2018-12-22T06:36:52.546Z,10.00
2018-12-22T06:39:26.623Z,9.90
2018-12-22T06:42:04.295Z,9.80
2018-12-22T06:44:32.468Z,9.70
2018-12-22T06:47:06.502Z,9.70
2018-12-22T06:49:35.325Z,9.70
2018-12-22T06:52:07.693Z,9.70
2018-12-22T06:54:41.769Z,9.70
2018-12-22T06:57:15.400Z,9.70
2018-12-22T06:59:53.238Z,9.60
2018-12-22T07:02:25.545Z,9.60
2018-12-22T07:04:57.510Z,9.60
2018-12-22T07:07:27.474Z,9.50
2018-12-22T07:10:06.859Z,9.50
2018-12-22T07:12:47.830Z,9.40
2018-12-22T07:15:16.069Z,9.40
2018-12-22T07:17:44.308Z,9.30
2018-12-22T07:20:12.552Z,9.20
2018-12-22T07:22:40.796Z,9.10
2018-12-22T07:25:08.945Z,9.10
2018-12-22T07:27:37.122Z,9.00
2018-12-22T07:30:07.406Z,9.00
2018-12-22T07:32:35.609Z,9.00
2018-12-22T07:35:04.136Z,9.00
2018-12-22T07:37:32.373Z,8.90
2018-12-22T07:40:00.561Z,8.80
2018-12-22T07:42:28.806Z,8.80
2018-12-22T07:44:56.969Z,8.80
2018-12-22T07:47:25.153Z,8.80
2018-12-22T07:49:53.332Z,8.90
2018-12-22T07:52:21.504Z,8.90
2018-12-22T07:54:49.675Z,9.00
2018-12-22T07:57:17.834Z,9.00
2018-12-22T07:59:45.990Z,9.10
2018-12-22T08:02:26.961Z,9.10
2018-12-22T08:08:03.454Z,9.10
2018-12-22T08:13:49.609Z,9.10
2018-12-22T08:25:39.430Z,9.20
2018-12-22T08:28:11.749Z,9.10
2018-12-22T08:30:43.920Z,9.10
2018-12-22T08:33:17.814Z,9.10
2018-12-22T08:39:07.034Z,9.20
2018-12-22T08:48:00.037Z,9.10
2018-12-22T08:50:38.128Z,9.10
2018-12-22T09:05:17.429Z,9.10
2018-12-22T09:07:51.297Z,9.10
2018-12-22T09:10:25.376Z,9.20
2018-12-22T09:25:22.505Z,9.20
2018-12-22T09:28:00.588Z,9.10
2018-12-22T09:36:25.346Z,9.10
2018-12-22T09:48:13.210Z,9.50
2018-12-22T10:51:37.703Z,9.40
2018-12-22T10:54:13.874Z,9.30
2018-12-22T10:56:58.592Z,9.20
2018-12-22T10:59:30.886Z,9.30
2018-12-22T11:02:12.336Z,9.20
2018-12-22T11:10:53.885Z,8.90
2018-12-22T11:13:28.157Z,8.90
2018-12-22T11:18:48.930Z,9.20
2018-12-22T11:21:17.288Z,9.40
2018-12-22T11:23:45.479Z,9.60
2018-12-22T11:26:19.552Z,9.70
2018-12-22T11:29:03.794Z,9.70
2018-12-22T11:31:38.117Z,10.00
2018-12-22T11:34:09.708Z,10.20
2018-12-22T11:36:39.059Z,10.50
2018-12-22T11:39:11.168Z,10.50
2018-12-22T11:41:39.304Z,10.60
2018-12-22T11:44:11.412Z,10.70
2018-12-22T11:46:41.791Z,10.80
2018-12-22T12:07:33.840Z,10.80
2018-12-22T12:10:22.333Z,10.80
2018-12-22T12:12:53.916Z,10.80
2018-12-22T12:15:30.772Z,10.80
2018-12-22T12:18:09.892Z,10.80
2018-12-22T12:20:41.753Z,10.60
2018-12-22T12:23:14.466Z,10.30
2018-12-22T12:25:59.192Z,10.30
2018-12-22T12:28:27.426Z,10.20
2018-12-22T12:31:01.068Z,10.30
2018-12-22T14:16:41.658Z,8.60
2018-12-22T14:19:18.652Z,8.60
2018-12-22T14:28:04.961Z,8.70
2018-12-22T14:30:39.370Z,8.70
2018-12-22T14:33:10.624Z,8.70
2018-12-22T15:21:18.236Z,8.70
2018-12-22T15:23:50.095Z,8.70
2018-12-22T15:26:24.391Z,8.70
2018-12-22T15:28:59.163Z,8.60
2018-12-22T15:31:30.062Z,8.60
2018-12-22T15:34:05.723Z,9.00
2018-12-22T15:36:39.647Z,8.60
2018-12-22T15:42:06.280Z,8.60
2018-12-22T15:44:40.704Z,8.50
2018-12-22T15:47:18.603Z,8.50
2018-12-22T15:49:47.171Z,8.50
2018-12-22T15:52:37.862Z,8.50
2018-12-22T15:55:18.458Z,8.40
2018-12-22T15:58:00.240Z,8.40
2018-12-22T16:00:30.640Z,8.30
2018-12-22T16:09:10.257Z,8.40
2018-12-22T16:11:39.761Z,8.30
2018-12-22T16:14:20.766Z,8.30
2018-12-22T16:16:57.892Z,8.30
2018-12-22T16:19:30.174Z,8.40
2018-12-22T16:22:01.509Z,8.30
2018-12-22T16:24:31.678Z,8.30
2018-12-22T16:27:15.705Z,8.40
2018-12-22T16:29:47.868Z,8.40
2018-12-22T16:32:22.941Z,8.30
2018-12-22T16:34:57.413Z,8.30
2018-12-22T16:37:33.003Z,8.30
2018-12-22T16:40:06.197Z,8.20
2018-12-22T16:42:35.360Z,8.20
2018-12-22T16:45:04.064Z,8.20
2018-12-22T16:47:32.880Z,8.10
2018-12-22T16:50:01.004Z,8.10
2018-12-22T16:52:29.260Z,8.10
2018-12-22T16:54:57.396Z,8.00
2018-12-22T16:57:25.537Z,8.00
2018-12-22T16:59:53.711Z,8.00
2018-12-22T17:02:31.545Z,8.00
2018-12-22T17:05:00.771Z,8.00
2018-12-22T17:07:32.412Z,8.00
2018-12-22T17:10:07.259Z,8.00
2018-12-22T17:12:41.643Z,8.00
2018-12-22T17:15:23.935Z,7.90
2018-12-22T17:18:14.637Z,7.90
2018-12-22T17:57:09.427Z,7.30
2018-12-22T17:59:39.716Z,7.30
2018-12-22T18:02:11.248Z,7.30
2018-12-22T18:04:39.546Z,7.30
2018-12-22T18:07:10.942Z,7.20
2018-12-22T18:09:39.239Z,7.20
2018-12-22T18:12:07.542Z,7.10
2018-12-22T18:14:38.972Z,7.20
2018-12-22T18:17:07.217Z,7.20
2018-12-22T18:19:40.874Z,7.30
2018-12-22T18:22:09.112Z,7.30
2018-12-22T18:24:37.289Z,7.40
2018-12-22T18:27:05.536Z,7.50
2018-12-22T18:29:33.673Z,7.50
2018-12-22T18:32:01.835Z,7.40
2018-12-22T18:34:30.124Z,7.50
2018-12-22T18:37:01.912Z,7.50
2018-12-22T18:39:30.162Z,7.50
2018-12-22T18:41:58.333Z,7.40
2018-12-22T18:44:26.503Z,7.40
2018-12-22T18:47:00.658Z,7.50
2018-12-22T18:49:36.376Z,7.50
2018-12-22T18:52:12.278Z,7.50
2018-12-22T18:54:56.352Z,7.50
2018-12-22T18:57:37.241Z,7.50
2018-12-22T19:09:22.709Z,7.50
2018-12-22T19:11:52.867Z,7.50
2018-12-22T19:14:27.512Z,7.40
2018-12-22T19:16:59.623Z,7.30
2018-12-22T19:19:31.391Z,7.30
2018-12-22T20:47:16.785Z,6.00
2018-12-22T20:50:07.306Z,6.00
2018-12-22T20:52:42.757Z,5.90
2018-12-22T20:55:35.114Z,5.90
2018-12-22T21:13:14.647Z,6.10
2018-12-22T21:15:50.377Z,6.40
2018-12-22T21:18:24.516Z,6.50
2018-12-22T21:20:52.781Z,6.70
2018-12-22T21:23:20.961Z,6.80
2018-12-22T21:25:55.075Z,7.00
2018-12-22T21:28:29.501Z,7.20
2018-12-22T21:31:00.901Z,7.30
2018-12-22T21:33:35.476Z,7.30
2018-12-22T21:36:09.346Z,7.30
2018-12-22T21:38:40.932Z,7.40
2018-12-22T21:41:15.004Z,7.50
2018-12-22T21:43:48.811Z,7.60
2018-12-22T21:46:20.384Z,7.60
2018-12-22T21:48:52.274Z,7.70
2018-12-22T21:51:24.248Z,7.60
2018-12-22T21:53:58.862Z,7.60
2018-12-22T21:56:30.309Z,7.60
2018-12-22T21:59:02.457Z,7.60
2018-12-22T22:01:34.537Z,7.50
2018-12-22T22:04:08.600Z,7.50
2018-12-22T22:06:42.583Z,7.50
2018-12-22T22:09:14.191Z,7.40
2018-12-22T22:11:46.015Z,7.40
2018-12-22T22:14:18.159Z,7.40
2018-12-22T22:16:50.994Z,7.40
2018-12-22T22:19:22.956Z,7.40
2018-12-22T22:21:57.223Z,7.40
2018-12-22T22:24:31.098Z,7.40
2018-12-22T22:27:05.265Z,7.50
2018-12-22T22:29:40.014Z,7.50
2018-12-22T22:32:12.244Z,7.40
2018-12-22T22:34:46.684Z,7.40
2018-12-22T22:37:18.578Z,7.30
2018-12-22T22:39:51.040Z,7.20
2018-12-22T22:42:22.710Z,7.10
2018-12-22T22:44:55.778Z,7.10
2018-12-22T22:47:30.418Z,7.20
2018-12-22T22:50:04.155Z,7.20
2018-12-22T22:52:38.612Z,7.30
2018-12-22T22:55:11.098Z,7.30
2018-12-22T22:57:45.179Z,7.30
2018-12-22T23:00:26.768Z,7.30
2018-12-22T23:03:01.281Z,7.30
2018-12-22T23:05:32.724Z,7.40
2018-12-22T23:08:07.279Z,7.40
2018-12-22T23:10:39.077Z,7.40
2018-12-22T23:13:13.079Z,7.40
2018-12-22T23:15:44.820Z,7.40
2018-12-22T23:18:23.007Z,7.40
2018-12-22T23:20:55.134Z,7.30
2018-12-22T23:23:28.201Z,7.40
2018-12-22T23:26:00.483Z,7.50
2018-12-22T23:28:34.804Z,7.50
2018-12-22T23:31:06.251Z,7.50
2018-12-22T23:33:38.304Z,7.50
2018-12-22T23:36:10.253Z,7.50
2018-12-22T23:38:42.655Z,7.50
2018-12-22T23:41:17.200Z,7.50
2018-12-22T23:43:49.498Z,7.40
2018-12-22T23:46:21.446Z,7.40
2018-12-22T23:48:53.444Z,7.50
2018-12-22T23:51:27.670Z,7.40
2018-12-22T23:53:59.497Z,7.40
2018-12-22T23:56:33.916Z,7.30
2018-12-22T23:59:05.251Z,7.30
